HHI weather

Wheeler Army Airfield
Wahiawa, Hawaii, United States

Public forecast

Using degrees Fahrenheit for public forecast. Weather courtesy of forecast.io.

METAR (pilot weather report)

Retrieved 2019/04/18 21:56 UTC (13 minutes ago):

PHHI 182156Z AUTO 09011KT 10SM FEW055 25/18 A3011 RMK AO2 SLP189 T02540176 $

TAF (pilot weather forecast)

Forecast is more than 6 hours old.

Retrieved 2019/04/18 15:12 UTC (7 hours ago):

TAF TAF PHHI 181500Z 1815/1921 27006KT 9999 FEW035 QNH3005INS TEMPO 1817/1818 BKN020 BECMG 1819/1820 08010KT 9999 SCT025 SCT035 QNH3010INS TEMPO 1820/1901 07010G15KT 8000 -SHRA BKN025 BECMG 1906/1907 VRB06KT 9999 SCT030 QNH3008INS BECMG 1916/1917 06010KT 9999 SCT035 QNH3007INS TX27/1823Z TN18/1815Z